sensor_id;sensor_type;location;lat;lon;timestamp;P1;durP1;ratioP1;P2;durP2;ratioP2
70838;SDS011;58464;52.298;4.852;2023-08-30T00:01:57;11.55;;;2.97;;
70838;SDS011;58464;52.298;4.852;2023-08-30T00:04:22;6.17;;;3.63;;
70838;SDS011;58464;52.298;4.852;2023-08-30T00:06:47;5.83;;;3.20;;
70838;SDS011;58464;52.298;4.852;2023-08-30T00:09:13;6.93;;;3.15;;
70838;SDS011;58464;52.298;4.852;2023-08-30T00:11:38;6.10;;;3.63;;
70838;SDS011;58464;52.298;4.852;2023-08-30T00:14:04;6.72;;;3.38;;
70838;SDS011;58464;52.298;4.852;2023-08-30T00:16:31;4.65;;;2.88;;
70838;SDS011;58464;52.298;4.852;2023-08-30T00:18:56;5.60;;;3.22;;
70838;SDS011;58464;52.298;4.852;2023-08-30T00:21:21;5.77;;;2.80;;
70838;SDS011;58464;52.298;4.852;2023-08-30T00:23:46;5.80;;;3.20;;
70838;SDS011;58464;52.298;4.852;2023-08-30T00:26:12;5.70;;;3.40;;
70838;SDS011;58464;52.298;4.852;2023-08-30T00:28:37;4.77;;;3.37;;
70838;SDS011;58464;52.298;4.852;2023-08-30T00:31:03;6.93;;;3.60;;
70838;SDS011;58464;52.298;4.852;2023-08-30T00:33:28;6.47;;;3.10;;
70838;SDS011;58464;52.298;4.852;2023-08-30T00:35:57;5.53;;;3.65;;
70838;SDS011;58464;52.298;4.852;2023-08-30T00:38:23;5.95;;;3.97;;
70838;SDS011;58464;52.298;4.852;2023-08-30T00:40:48;14.97;;;4.13;;
70838;SDS011;58464;52.298;4.852;2023-08-30T00:43:13;10.83;;;3.97;;
70838;SDS011;58464;52.298;4.852;2023-08-30T00:45:38;5.63;;;4.43;;
70838;SDS011;58464;52.298;4.852;2023-08-30T00:48:05;6.15;;;4.20;;
70838;SDS011;58464;52.298;4.852;2023-08-30T00:50:30;6.35;;;3.90;;
70838;SDS011;58464;52.298;4.852;2023-08-30T00:52:56;5.53;;;3.93;;
70838;SDS011;58464;52.298;4.852;2023-08-30T00:55:21;6.30;;;4.10;;
70838;SDS011;58464;52.298;4.852;2023-08-30T00:57:46;5.50;;;4.00;;
70838;SDS011;58464;52.298;4.852;2023-08-30T01:00:12;5.43;;;4.18;;
70838;SDS011;58464;52.298;4.852;2023-08-30T01:02:37;12.32;;;4.03;;
70838;SDS011;58464;52.298;4.852;2023-08-30T01:05:02;6.13;;;4.53;;
70838;SDS011;58464;52.298;4.852;2023-08-30T01:07:29;6.32;;;4.18;;
70838;SDS011;58464;52.298;4.852;2023-08-30T01:09:55;8.55;;;4.38;;
70838;SDS011;58464;52.298;4.852;2023-08-30T01:12:20;10.47;;;4.10;;
70838;SDS011;58464;52.298;4.852;2023-08-30T01:14:58;7.88;;;4.25;;
70838;SDS011;58464;52.298;4.852;2023-08-30T01:17:24;5.68;;;4.50;;
70838;SDS011;58464;52.298;4.852;2023-08-30T01:19:51;7.28;;;4.80;;
70838;SDS011;58464;52.298;4.852;2023-08-30T01:24:55;11.40;;;4.17;;
70838;SDS011;58464;52.298;4.852;2023-08-30T01:27:24;6.80;;;4.80;;
70838;SDS011;58464;52.298;4.852;2023-08-30T01:29:50;7.45;;;4.55;;
70838;SDS011;58464;52.298;4.852;2023-08-30T01:32:18;5.88;;;4.40;;
70838;SDS011;58464;52.298;4.852;2023-08-30T01:34:45;6.68;;;4.47;;
70838;SDS011;58464;52.298;4.852;2023-08-30T01:37:11;6.35;;;4.18;;
70838;SDS011;58464;52.298;4.852;2023-08-30T01:39:39;7.05;;;4.80;;
70838;SDS011;58464;52.298;4.852;2023-08-30T01:42:06;7.57;;;4.30;;
70838;SDS011;58464;52.298;4.852;2023-08-30T01:44:32;7.43;;;4.82;;
70838;SDS011;58464;52.298;4.852;2023-08-30T01:46:58;7.95;;;5.13;;
70838;SDS011;58464;52.298;4.852;2023-08-30T01:49:25;7.88;;;4.75;;
70838;SDS011;58464;52.298;4.852;2023-08-30T01:51:51;9.13;;;5.47;;
70838;SDS011;58464;52.298;4.852;2023-08-30T01:54:17;7.68;;;4.93;;
70838;SDS011;58464;52.298;4.852;2023-08-30T01:56:43;9.23;;;4.93;;
70838;SDS011;58464;52.298;4.852;2023-08-30T01:59:09;6.35;;;4.72;;
70838;SDS011;58464;52.298;4.852;2023-08-30T02:01:34;6.40;;;4.68;;
70838;SDS011;58464;52.298;4.852;2023-08-30T02:03:59;7.50;;;4.73;;
70838;SDS011;58464;52.298;4.852;2023-08-30T02:06:48;7.93;;;4.93;;
70838;SDS011;58464;52.298;4.852;2023-08-30T02:09:14;7.70;;;5.20;;
70838;SDS011;58464;52.298;4.852;2023-08-30T02:11:43;9.50;;;5.10;;
70838;SDS011;58464;52.298;4.852;2023-08-30T02:14:10;8.27;;;5.28;;
70838;SDS011;58464;52.298;4.852;2023-08-30T02:16:35;9.43;;;5.28;;
70838;SDS011;58464;52.298;4.852;2023-08-30T02:19:01;8.73;;;5.70;;
70838;SDS011;58464;52.298;4.852;2023-08-30T02:21:27;7.93;;;5.43;;
70838;SDS011;58464;52.298;4.852;2023-08-30T02:23:52;9.20;;;4.85;;
70838;SDS011;58464;52.298;4.852;2023-08-30T02:26:19;8.87;;;5.60;;
70838;SDS011;58464;52.298;4.852;2023-08-30T02:28:44;7.05;;;5.18;;
70838;SDS011;58464;52.298;4.852;2023-08-30T02:31:09;10.10;;;5.53;;
70838;SDS011;58464;52.298;4.852;2023-08-30T02:33:35;13.15;;;5.43;;
70838;SDS011;58464;52.298;4.852;2023-08-30T02:36:02;10.10;;;5.63;;
70838;SDS011;58464;52.298;4.852;2023-08-30T02:38:27;8.07;;;5.43;;
70838;SDS011;58464;52.298;4.852;2023-08-30T02:40:52;11.93;;;5.70;;
70838;SDS011;58464;52.298;4.852;2023-08-30T02:43:19;9.17;;;5.77;;
70838;SDS011;58464;52.298;4.852;2023-08-30T02:45:44;16.23;;;6.68;;
70838;SDS011;58464;52.298;4.852;2023-08-30T02:48:09;9.38;;;5.60;;
70838;SDS011;58464;52.298;4.852;2023-08-30T02:50:35;10.63;;;5.40;;
70838;SDS011;58464;52.298;4.852;2023-08-30T02:53:00;11.17;;;5.73;;
70838;SDS011;58464;52.298;4.852;2023-08-30T02:55:25;10.23;;;6.30;;
70838;SDS011;58464;52.298;4.852;2023-08-30T02:57:50;11.73;;;5.60;;
70838;SDS011;58464;52.298;4.852;2023-08-30T03:00:16;9.23;;;5.43;;
70838;SDS011;58464;52.298;4.852;2023-08-30T03:02:41;7.80;;;5.60;;
70838;SDS011;58464;52.298;4.852;2023-08-30T03:05:06;13.07;;;6.40;;
70838;SDS011;58464;52.298;4.852;2023-08-30T03:07:31;10.55;;;6.00;;
70838;SDS011;58464;52.298;4.852;2023-08-30T03:09:57;8.63;;;6.00;;
70838;SDS011;58464;52.298;4.852;2023-08-30T03:12:22;12.50;;;6.50;;
70838;SDS011;58464;52.298;4.852;2023-08-30T03:14:47;11.23;;;6.33;;
70838;SDS011;58464;52.298;4.852;2023-08-30T03:17:12;14.10;;;6.67;;
70838;SDS011;58464;52.298;4.852;2023-08-30T03:19:38;10.17;;;6.57;;
70838;SDS011;58464;52.298;4.852;2023-08-30T03:22:03;10.57;;;6.70;;
70838;SDS011;58464;52.298;4.852;2023-08-30T03:24:28;12.60;;;7.00;;
70838;SDS011;58464;52.298;4.852;2023-08-30T03:26:53;12.73;;;7.47;;
70838;SDS011;58464;52.298;4.852;2023-08-30T03:29:19;12.10;;;7.10;;
70838;SDS011;58464;52.298;4.852;2023-08-30T03:31:44;13.53;;;7.93;;
70838;SDS011;58464;52.298;4.852;2023-08-30T03:34:09;14.90;;;8.30;;
70838;SDS011;58464;52.298;4.852;2023-08-30T03:36:34;12.37;;;7.70;;
70838;SDS011;58464;52.298;4.852;2023-08-30T03:39:00;12.90;;;8.23;;
70838;SDS011;58464;52.298;4.852;2023-08-30T03:41:25;14.05;;;7.90;;
70838;SDS011;58464;52.298;4.852;2023-08-30T03:43:50;12.30;;;7.97;;
70838;SDS011;58464;52.298;4.852;2023-08-30T03:46:15;11.52;;;7.95;;
70838;SDS011;58464;52.298;4.852;2023-08-30T03:48:41;11.97;;;8.10;;
70838;SDS011;58464;52.298;4.852;2023-08-30T03:51:06;12.33;;;8.57;;
70838;SDS011;58464;52.298;4.852;2023-08-30T03:53:31;13.38;;;8.38;;
70838;SDS011;58464;52.298;4.852;2023-08-30T03:55:56;15.47;;;9.73;;
70838;SDS011;58464;52.298;4.852;2023-08-30T03:58:22;11.70;;;8.98;;
70838;SDS011;58464;52.298;4.852;2023-08-30T04:00:47;14.03;;;8.77;;
70838;SDS011;58464;52.298;4.852;2023-08-30T04:03:13;12.55;;;8.02;;
70838;SDS011;58464;52.298;4.852;2023-08-30T04:05:38;13.43;;;9.02;;
70838;SDS011;58464;52.298;4.852;2023-08-30T04:08:04;14.53;;;9.30;;
70838;SDS011;58464;52.298;4.852;2023-08-30T04:10:34;13.07;;;8.95;;
70838;SDS011;58464;52.298;4.852;2023-08-30T04:12:59;15.00;;;8.70;;
70838;SDS011;58464;52.298;4.852;2023-08-30T04:15:24;12.87;;;8.00;;
70838;SDS011;58464;52.298;4.852;2023-08-30T04:17:49;13.87;;;8.27;;
70838;SDS011;58464;52.298;4.852;2023-08-30T04:20:15;13.70;;;7.73;;
70838;SDS011;58464;52.298;4.852;2023-08-30T04:22:40;11.32;;;7.57;;
70838;SDS011;58464;52.298;4.852;2023-08-30T04:25:05;11.30;;;7.80;;
70838;SDS011;58464;52.298;4.852;2023-08-30T04:27:32;14.52;;;7.88;;
70838;SDS011;58464;52.298;4.852;2023-08-30T04:29:57;13.67;;;7.90;;
70838;SDS011;58464;52.298;4.852;2023-08-30T04:32:23;11.57;;;7.83;;
70838;SDS011;58464;52.298;4.852;2023-08-30T04:34:48;14.10;;;8.00;;
70838;SDS011;58464;52.298;4.852;2023-08-30T04:37:13;13.17;;;8.40;;
70838;SDS011;58464;52.298;4.852;2023-08-30T04:39:39;11.20;;;8.27;;
70838;SDS011;58464;52.298;4.852;2023-08-30T04:42:05;9.77;;;7.10;;
70838;SDS011;58464;52.298;4.852;2023-08-30T04:44:30;12.60;;;7.28;;
70838;SDS011;58464;52.298;4.852;2023-08-30T04:46:57;13.93;;;8.40;;
70838;SDS011;58464;52.298;4.852;2023-08-30T04:49:22;13.05;;;7.53;;
70838;SDS011;58464;52.298;4.852;2023-08-30T04:51:47;14.47;;;8.10;;
70838;SDS011;58464;52.298;4.852;2023-08-30T04:54:12;10.50;;;7.30;;
70838;SDS011;58464;52.298;4.852;2023-08-30T04:56:39;12.52;;;7.55;;
70838;SDS011;58464;52.298;4.852;2023-08-30T04:59:04;13.43;;;7.65;;
70838;SDS011;58464;52.298;4.852;2023-08-30T05:01:30;14.57;;;8.17;;
70838;SDS011;58464;52.298;4.852;2023-08-30T05:03:55;12.30;;;7.57;;
70838;SDS011;58464;52.298;4.852;2023-08-30T05:06:20;11.17;;;7.43;;
70838;SDS011;58464;52.298;4.852;2023-08-30T05:08:45;12.83;;;7.53;;
70838;SDS011;58464;52.298;4.852;2023-08-30T05:11:10;13.87;;;7.57;;
70838;SDS011;58464;52.298;4.852;2023-08-30T05:13:36;14.77;;;7.80;;
70838;SDS011;58464;52.298;4.852;2023-08-30T05:16:01;13.90;;;7.63;;
70838;SDS011;58464;52.298;4.852;2023-08-30T05:18:26;13.57;;;8.40;;
70838;SDS011;58464;52.298;4.852;2023-08-30T05:20:51;12.77;;;8.20;;
70838;SDS011;58464;52.298;4.852;2023-08-30T05:23:17;11.77;;;8.00;;
70838;SDS011;58464;52.298;4.852;2023-08-30T05:25:42;13.83;;;7.43;;
70838;SDS011;58464;52.298;4.852;2023-08-30T05:28:07;14.13;;;7.77;;
70838;SDS011;58464;52.298;4.852;2023-08-30T05:30:32;11.63;;;7.45;;
70838;SDS011;58464;52.298;4.852;2023-08-30T05:32:59;19.53;;;8.63;;
70838;SDS011;58464;52.298;4.852;2023-08-30T05:35:24;15.82;;;8.27;;
70838;SDS011;58464;52.298;4.852;2023-08-30T05:37:49;17.43;;;8.53;;
70838;SDS011;58464;52.298;4.852;2023-08-30T05:40:15;10.75;;;7.50;;
70838;SDS011;58464;52.298;4.852;2023-08-30T05:42:42;12.10;;;7.47;;
70838;SDS011;58464;52.298;4.852;2023-08-30T05:45:07;11.20;;;7.80;;
70838;SDS011;58464;52.298;4.852;2023-08-30T05:47:33;14.40;;;8.38;;
70838;SDS011;58464;52.298;4.852;2023-08-30T05:49:59;13.52;;;8.05;;
70838;SDS011;58464;52.298;4.852;2023-08-30T05:52:24;12.97;;;7.83;;
70838;SDS011;58464;52.298;4.852;2023-08-30T05:54:50;14.73;;;8.15;;
70838;SDS011;58464;52.298;4.852;2023-08-30T05:57:15;11.68;;;7.93;;
70838;SDS011;58464;52.298;4.852;2023-08-30T05:59:41;14.93;;;8.32;;
70838;SDS011;58464;52.298;4.852;2023-08-30T06:02:06;12.90;;;7.40;;
70838;SDS011;58464;52.298;4.852;2023-08-30T06:04:31;12.87;;;8.03;;
70838;SDS011;58464;52.298;4.852;2023-08-30T06:06:56;13.20;;;8.07;;
70838;SDS011;58464;52.298;4.852;2023-08-30T06:09:22;12.57;;;8.13;;
70838;SDS011;58464;52.298;4.852;2023-08-30T06:11:47;15.63;;;8.67;;
70838;SDS011;58464;52.298;4.852;2023-08-30T06:14:12;13.67;;;8.00;;
70838;SDS011;58464;52.298;4.852;2023-08-30T06:16:37;15.37;;;8.30;;
70838;SDS011;58464;52.298;4.852;2023-08-30T06:19:03;22.83;;;9.20;;
70838;SDS011;58464;52.298;4.852;2023-08-30T06:21:28;13.60;;;8.05;;
70838;SDS011;58464;52.298;4.852;2023-08-30T06:23:53;16.87;;;9.67;;
70838;SDS011;58464;52.298;4.852;2023-08-30T06:26:19;17.38;;;9.02;;
70838;SDS011;58464;52.298;4.852;2023-08-30T06:28:44;17.47;;;9.23;;
70838;SDS011;58464;52.298;4.852;2023-08-30T06:31:09;13.98;;;9.35;;
70838;SDS011;58464;52.298;4.852;2023-08-30T06:33:36;14.98;;;8.90;;
70838;SDS011;58464;52.298;4.852;2023-08-30T06:36:02;14.15;;;8.13;;
70838;SDS011;58464;52.298;4.852;2023-08-30T06:38:28;13.93;;;9.07;;
70838;SDS011;58464;52.298;4.852;2023-08-30T06:40:53;13.30;;;8.70;;
70838;SDS011;58464;52.298;4.852;2023-08-30T06:43:18;15.45;;;9.25;;
70838;SDS011;58464;52.298;4.852;2023-08-30T06:45:44;19.05;;;10.27;;
70838;SDS011;58464;52.298;4.852;2023-08-30T06:48:09;14.48;;;9.50;;
70838;SDS011;58464;52.298;4.852;2023-08-30T06:50:35;15.60;;;9.00;;
70838;SDS011;58464;52.298;4.852;2023-08-30T06:53:01;19.90;;;10.35;;
70838;SDS011;58464;52.298;4.852;2023-08-30T06:55:26;18.17;;;9.73;;
70838;SDS011;58464;52.298;4.852;2023-08-30T06:57:51;16.33;;;10.27;;
70838;SDS011;58464;52.298;4.852;2023-08-30T07:00:17;15.20;;;9.03;;
70838;SDS011;58464;52.298;4.852;2023-08-30T07:02:42;19.10;;;9.73;;
70838;SDS011;58464;52.298;4.852;2023-08-30T07:05:10;17.98;;;11.05;;
70838;SDS011;58464;52.298;4.852;2023-08-30T07:07:36;16.25;;;9.68;;
70838;SDS011;58464;52.298;4.852;2023-08-30T07:10:01;12.87;;;8.63;;
70838;SDS011;58464;52.298;4.852;2023-08-30T07:12:27;16.83;;;8.82;;
70838;SDS011;58464;52.298;4.852;2023-08-30T07:14:53;17.95;;;9.10;;
70838;SDS011;58464;52.298;4.852;2023-08-30T07:17:18;14.23;;;9.75;;
70838;SDS011;58464;52.298;4.852;2023-08-30T07:19:43;11.70;;;8.90;;
70838;SDS011;58464;52.298;4.852;2023-08-30T07:22:09;13.40;;;8.47;;
70838;SDS011;58464;52.298;4.852;2023-08-30T07:24:34;14.02;;;8.98;;
70838;SDS011;58464;52.298;4.852;2023-08-30T07:26:59;12.60;;;8.45;;
70838;SDS011;58464;52.298;4.852;2023-08-30T07:29:24;13.33;;;9.23;;
70838;SDS011;58464;52.298;4.852;2023-08-30T07:31:50;12.80;;;8.47;;
70838;SDS011;58464;52.298;4.852;2023-08-30T07:34:18;21.50;;;8.60;;
70838;SDS011;58464;52.298;4.852;2023-08-30T07:36:44;11.50;;;8.07;;
70838;SDS011;58464;52.298;4.852;2023-08-30T07:39:09;13.17;;;8.33;;
70838;SDS011;58464;52.298;4.852;2023-08-30T07:41:34;11.77;;;8.38;;
70838;SDS011;58464;52.298;4.852;2023-08-30T07:44:00;12.73;;;7.70;;
70838;SDS011;58464;52.298;4.852;2023-08-30T07:46:25;14.38;;;8.45;;
70838;SDS011;58464;52.298;4.852;2023-08-30T07:48:51;12.70;;;7.20;;
70838;SDS011;58464;52.298;4.852;2023-08-30T07:51:16;13.30;;;8.07;;
70838;SDS011;58464;52.298;4.852;2023-08-30T07:53:41;12.63;;;8.30;;
70838;SDS011;58464;52.298;4.852;2023-08-30T07:56:07;11.07;;;8.17;;
70838;SDS011;58464;52.298;4.852;2023-08-30T07:58:33;13.77;;;7.18;;
70838;SDS011;58464;52.298;4.852;2023-08-30T08:00:58;12.30;;;7.40;;
70838;SDS011;58464;52.298;4.852;2023-08-30T08:03:24;10.68;;;6.80;;
70838;SDS011;58464;52.298;4.852;2023-08-30T08:05:49;11.27;;;7.30;;
70838;SDS011;58464;52.298;4.852;2023-08-30T08:08:15;9.98;;;6.47;;
70838;SDS011;58464;52.298;4.852;2023-08-30T08:10:42;12.60;;;7.07;;
70838;SDS011;58464;52.298;4.852;2023-08-30T08:13:07;9.40;;;6.68;;
70838;SDS011;58464;52.298;4.852;2023-08-30T08:15:32;8.40;;;5.57;;
70838;SDS011;58464;52.298;4.852;2023-08-30T08:17:59;7.20;;;5.82;;
70838;SDS011;58464;52.298;4.852;2023-08-30T08:20:25;9.85;;;5.97;;
70838;SDS011;58464;52.298;4.852;2023-08-30T08:22:51;9.90;;;5.45;;
70838;SDS011;58464;52.298;4.852;2023-08-30T08:25:16;8.95;;;5.13;;
70838;SDS011;58464;52.298;4.852;2023-08-30T08:27:42;6.03;;;5.22;;
70838;SDS011;58464;52.298;4.852;2023-08-30T08:30:07;8.88;;;5.18;;
70838;SDS011;58464;52.298;4.852;2023-08-30T08:32:32;7.57;;;4.80;;
70838;SDS011;58464;52.298;4.852;2023-08-30T08:34:58;5.50;;;4.18;;
70838;SDS011;58464;52.298;4.852;2023-08-30T08:37:23;6.45;;;3.72;;
70838;SDS011;58464;52.298;4.852;2023-08-30T08:39:49;6.63;;;4.33;;
70838;SDS011;58464;52.298;4.852;2023-08-30T08:42:16;7.78;;;4.20;;
70838;SDS011;58464;52.298;4.852;2023-08-30T08:44:41;5.93;;;3.80;;
70838;SDS011;58464;52.298;4.852;2023-08-30T08:47:08;6.63;;;4.40;;
70838;SDS011;58464;52.298;4.852;2023-08-30T08:49:33;6.18;;;3.95;;
70838;SDS011;58464;52.298;4.852;2023-08-30T08:51:58;5.37;;;3.47;;
70838;SDS011;58464;52.298;4.852;2023-08-30T08:54:23;6.68;;;4.20;;
70838;SDS011;58464;52.298;4.852;2023-08-30T08:56:49;7.57;;;4.50;;
70838;SDS011;58464;52.298;4.852;2023-08-30T08:59:15;7.93;;;3.97;;
70838;SDS011;58464;52.298;4.852;2023-08-30T09:01:40;6.00;;;3.83;;
70838;SDS011;58464;52.298;4.852;2023-08-30T09:04:06;5.78;;;4.15;;
70838;SDS011;58464;52.298;4.852;2023-08-30T09:06:32;8.73;;;3.90;;
70838;SDS011;58464;52.298;4.852;2023-08-30T09:08:57;6.10;;;4.13;;
70838;SDS011;58464;52.298;4.852;2023-08-30T09:11:23;7.83;;;3.57;;
70838;SDS011;58464;52.298;4.852;2023-08-30T09:13:48;6.47;;;4.50;;
70838;SDS011;58464;52.298;4.852;2023-08-30T09:16:13;6.47;;;3.80;;
70838;SDS011;58464;52.298;4.852;2023-08-30T09:18:39;6.63;;;4.00;;
70838;SDS011;58464;52.298;4.852;2023-08-30T09:21:08;5.95;;;3.83;;
70838;SDS011;58464;52.298;4.852;2023-08-30T09:23:34;10.73;;;5.18;;
70838;SDS011;58464;52.298;4.852;2023-08-30T09:25:59;8.18;;;3.85;;
70838;SDS011;58464;52.298;4.852;2023-08-30T09:28:25;7.63;;;4.22;;
70838;SDS011;58464;52.298;4.852;2023-08-30T09:30:50;4.70;;;3.80;;
70838;SDS011;58464;52.298;4.852;2023-08-30T09:33:20;5.90;;;3.10;;
70838;SDS011;58464;52.298;4.852;2023-08-30T09:35:45;2.78;;;2.47;;
70838;SDS011;58464;52.298;4.852;2023-08-30T09:38:17;6.72;;;3.00;;
70838;SDS011;58464;52.298;4.852;2023-08-30T09:40:43;2.05;;;1.73;;
70838;SDS011;58464;52.298;4.852;2023-08-30T09:43:09;6.97;;;2.33;;
70838;SDS011;58464;52.298;4.852;2023-08-30T09:45:34;5.28;;;2.80;;
70838;SDS011;58464;52.298;4.852;2023-08-30T09:48:00;4.75;;;2.47;;
70838;SDS011;58464;52.298;4.852;2023-08-30T09:50:26;6.85;;;2.80;;
70838;SDS011;58464;52.298;4.852;2023-08-30T09:52:52;5.90;;;1.88;;
70838;SDS011;58464;52.298;4.852;2023-08-30T09:55:18;10.13;;;2.55;;
70838;SDS011;58464;52.298;4.852;2023-08-30T09:57:43;4.65;;;2.15;;
70838;SDS011;58464;52.298;4.852;2023-08-30T10:00:09;6.95;;;2.50;;
70838;SDS011;58464;52.298;4.852;2023-08-30T10:02:38;7.40;;;2.78;;
70838;SDS011;58464;52.298;4.852;2023-08-30T10:05:06;3.28;;;2.10;;
70838;SDS011;58464;52.298;4.852;2023-08-30T10:07:33;5.10;;;2.25;;
70838;SDS011;58464;52.298;4.852;2023-08-30T10:09:58;2.78;;;1.20;;
70838;SDS011;58464;52.298;4.852;2023-08-30T10:12:24;4.78;;;1.38;;
70838;SDS011;58464;52.298;4.852;2023-08-30T10:14:50;3.63;;;1.85;;
70838;SDS011;58464;52.298;4.852;2023-08-30T10:17:16;3.00;;;1.52;;
70838;SDS011;58464;52.298;4.852;2023-08-30T10:19:43;2.88;;;1.45;;
70838;SDS011;58464;52.298;4.852;2023-08-30T10:22:08;4.03;;;1.60;;
70838;SDS011;58464;52.298;4.852;2023-08-30T10:24:40;5.47;;;1.25;;
70838;SDS011;58464;52.298;4.852;2023-08-30T10:27:06;9.07;;;2.33;;
70838;SDS011;58464;52.298;4.852;2023-08-30T10:29:32;5.15;;;1.95;;
70838;SDS011;58464;52.298;4.852;2023-08-30T10:32:04;5.28;;;2.22;;
70838;SDS011;58464;52.298;4.852;2023-08-30T10:34:36;4.63;;;1.60;;
70838;SDS011;58464;52.298;4.852;2023-08-30T10:37:09;6.00;;;2.20;;
70838;SDS011;58464;52.298;4.852;2023-08-30T10:39:35;10.43;;;2.47;;
70838;SDS011;58464;52.298;4.852;2023-08-30T10:42:06;5.10;;;1.52;;
70838;SDS011;58464;52.298;4.852;2023-08-30T10:44:31;8.77;;;2.03;;
70838;SDS011;58464;52.298;4.852;2023-08-30T10:46:57;8.73;;;2.58;;
70838;SDS011;58464;52.298;4.852;2023-08-30T10:49:22;9.32;;;2.33;;
70838;SDS011;58464;52.298;4.852;2023-08-30T10:51:55;14.15;;;4.03;;
70838;SDS011;58464;52.298;4.852;2023-08-30T10:54:22;9.55;;;1.85;;
70838;SDS011;58464;52.298;4.852;2023-08-30T10:56:58;10.65;;;2.22;;
70838;SDS011;58464;52.298;4.852;2023-08-30T10:59:26;8.35;;;2.08;;
70838;SDS011;58464;52.298;4.852;2023-08-30T11:01:51;5.20;;;1.70;;
70838;SDS011;58464;52.298;4.852;2023-08-30T11:04:17;11.73;;;2.08;;
70838;SDS011;58464;52.298;4.852;2023-08-30T11:06:47;12.60;;;2.17;;
70838;SDS011;58464;52.298;4.852;2023-08-30T11:09:13;4.95;;;1.60;;
70838;SDS011;58464;52.298;4.852;2023-08-30T11:11:39;12.55;;;2.80;;
70838;SDS011;58464;52.298;4.852;2023-08-30T11:14:07;10.15;;;1.92;;
70838;SDS011;58464;52.298;4.852;2023-08-30T11:16:34;19.60;;;2.03;;
70838;SDS011;58464;52.298;4.852;2023-08-30T11:19:00;10.80;;;2.05;;
70838;SDS011;58464;52.298;4.852;2023-08-30T11:21:25;17.23;;;2.70;;
70838;SDS011;58464;52.298;4.852;2023-08-30T11:23:51;5.20;;;1.55;;
70838;SDS011;58464;52.298;4.852;2023-08-30T11:26:16;10.88;;;2.10;;
70838;SDS011;58464;52.298;4.852;2023-08-30T11:28:44;10.63;;;2.50;;
70838;SDS011;58464;52.298;4.852;2023-08-30T11:31:23;5.13;;;1.85;;
70838;SDS011;58464;52.298;4.852;2023-08-30T11:33:51;18.30;;;3.30;;
70838;SDS011;58464;52.298;4.852;2023-08-30T11:36:18;9.38;;;2.42;;
70838;SDS011;58464;52.298;4.852;2023-08-30T11:38:44;7.78;;;1.92;;
70838;SDS011;58464;52.298;4.852;2023-08-30T11:41:10;3.63;;;1.73;;
70838;SDS011;58464;52.298;4.852;2023-08-30T11:43:35;7.60;;;1.92;;
70838;SDS011;58464;52.298;4.852;2023-08-30T11:46:02;13.88;;;2.33;;
70838;SDS011;58464;52.298;4.852;2023-08-30T11:48:28;11.52;;;2.20;;
70838;SDS011;58464;52.298;4.852;2023-08-30T11:50:54;12.68;;;2.10;;
70838;SDS011;58464;52.298;4.852;2023-08-30T11:53:19;13.63;;;2.03;;
70838;SDS011;58464;52.298;4.852;2023-08-30T11:55:44;7.15;;;1.48;;
70838;SDS011;58464;52.298;4.852;2023-08-30T11:58:10;6.75;;;1.50;;
70838;SDS011;58464;52.298;4.852;2023-08-30T12:00:35;6.53;;;1.37;;
70838;SDS011;58464;52.298;4.852;2023-08-30T12:03:02;13.15;;;1.58;;
70838;SDS011;58464;52.298;4.852;2023-08-30T12:05:30;5.30;;;1.30;;
70838;SDS011;58464;52.298;4.852;2023-08-30T12:07:59;5.15;;;1.30;;
70838;SDS011;58464;52.298;4.852;2023-08-30T12:10:24;7.90;;;1.13;;
70838;SDS011;58464;52.298;4.852;2023-08-30T12:12:49;5.60;;;1.30;;
70838;SDS011;58464;52.298;4.852;2023-08-30T12:15:18;12.63;;;1.60;;
70838;SDS011;58464;52.298;4.852;2023-08-30T12:17:44;10.85;;;1.90;;
70838;SDS011;58464;52.298;4.852;2023-08-30T12:20:16;4.78;;;1.58;;
70838;SDS011;58464;52.298;4.852;2023-08-30T12:22:48;13.40;;;1.50;;
70838;SDS011;58464;52.298;4.852;2023-08-30T12:25:22;4.60;;;1.55;;
70838;SDS011;58464;52.298;4.852;2023-08-30T12:27:51;7.47;;;1.92;;
70838;SDS011;58464;52.298;4.852;2023-08-30T12:30:18;6.43;;;1.25;;
70838;SDS011;58464;52.298;4.852;2023-08-30T12:32:45;3.45;;;1.13;;
70838;SDS011;58464;52.298;4.852;2023-08-30T12:35:10;5.05;;;1.20;;
70838;SDS011;58464;52.298;4.852;2023-08-30T12:37:36;6.35;;;1.30;;
70838;SDS011;58464;52.298;4.852;2023-08-30T12:40:01;3.08;;;0.75;;
70838;SDS011;58464;52.298;4.852;2023-08-30T12:42:26;6.65;;;1.40;;
70838;SDS011;58464;52.298;4.852;2023-08-30T12:44:52;2.42;;;1.02;;
70838;SDS011;58464;52.298;4.852;2023-08-30T12:47:17;3.38;;;0.98;;
70838;SDS011;58464;52.298;4.852;2023-08-30T12:49:42;7.00;;;1.27;;
70838;SDS011;58464;52.298;4.852;2023-08-30T12:52:08;6.57;;;1.10;;
70838;SDS011;58464;52.298;4.852;2023-08-30T12:54:33;7.25;;;1.65;;
70838;SDS011;58464;52.298;4.852;2023-08-30T12:56:58;5.50;;;1.27;;
70838;SDS011;58464;52.298;4.852;2023-08-30T12:59:23;6.13;;;1.70;;
70838;SDS011;58464;52.298;4.852;2023-08-30T13:01:49;2.83;;;1.20;;
70838;SDS011;58464;52.298;4.852;2023-08-30T13:04:14;7.47;;;1.63;;
70838;SDS011;58464;52.298;4.852;2023-08-30T13:06:39;8.53;;;1.60;;
70838;SDS011;58464;52.298;4.852;2023-08-30T13:09:06;9.10;;;1.63;;
70838;SDS011;58464;52.298;4.852;2023-08-30T13:11:31;9.77;;;1.90;;
70838;SDS011;58464;52.298;4.852;2023-08-30T13:13:57;4.55;;;1.73;;
70838;SDS011;58464;52.298;4.852;2023-08-30T13:16:23;4.10;;;1.27;;
70838;SDS011;58464;52.298;4.852;2023-08-30T13:18:48;4.28;;;1.30;;
70838;SDS011;58464;52.298;4.852;2023-08-30T13:21:13;4.03;;;1.10;;
70838;SDS011;58464;52.298;4.852;2023-08-30T13:23:39;5.20;;;1.57;;
70838;SDS011;58464;52.298;4.852;2023-08-30T13:26:04;5.65;;;1.10;;
70838;SDS011;58464;52.298;4.852;2023-08-30T13:28:29;7.17;;;2.10;;
70838;SDS011;58464;52.298;4.852;2023-08-30T13:30:54;9.60;;;2.03;;
70838;SDS011;58464;52.298;4.852;2023-08-30T13:33:20;5.27;;;1.43;;
70838;SDS011;58464;52.298;4.852;2023-08-30T13:35:48;3.57;;;1.30;;
70838;SDS011;58464;52.298;4.852;2023-08-30T13:38:15;3.90;;;1.13;;
70838;SDS011;58464;52.298;4.852;2023-08-30T13:40:40;4.22;;;1.20;;
70838;SDS011;58464;52.298;4.852;2023-08-30T13:43:06;1.83;;;0.50;;
70838;SDS011;58464;52.298;4.852;2023-08-30T13:45:32;4.60;;;1.17;;
70838;SDS011;58464;52.298;4.852;2023-08-30T13:47:57;2.67;;;1.35;;
70838;SDS011;58464;52.298;4.852;2023-08-30T13:50:22;2.35;;;0.77;;
70838;SDS011;58464;52.298;4.852;2023-08-30T13:52:47;3.57;;;1.40;;
70838;SDS011;58464;52.298;4.852;2023-08-30T13:55:13;4.70;;;1.27;;
70838;SDS011;58464;52.298;4.852;2023-08-30T13:57:39;4.97;;;1.27;;
70838;SDS011;58464;52.298;4.852;2023-08-30T14:00:05;2.63;;;0.90;;
70838;SDS011;58464;52.298;4.852;2023-08-30T14:02:34;2.75;;;1.20;;
70838;SDS011;58464;52.298;4.852;2023-08-30T14:04:59;2.60;;;1.15;;
70838;SDS011;58464;52.298;4.852;2023-08-30T14:07:25;5.18;;;1.20;;
70838;SDS011;58464;52.298;4.852;2023-08-30T14:09:50;6.32;;;1.73;;
70838;SDS011;58464;52.298;4.852;2023-08-30T14:12:16;7.05;;;1.55;;
70838;SDS011;58464;52.298;4.852;2023-08-30T14:14:42;5.30;;;1.30;;
70838;SDS011;58464;52.298;4.852;2023-08-30T14:17:07;7.10;;;1.83;;
70838;SDS011;58464;52.298;4.852;2023-08-30T14:19:33;2.97;;;0.70;;
70838;SDS011;58464;52.298;4.852;2023-08-30T14:21:58;1.10;;;0.60;;
70838;SDS011;58464;52.298;4.852;2023-08-30T14:24:25;9.48;;;2.00;;
70838;SDS011;58464;52.298;4.852;2023-08-30T14:26:50;5.70;;;1.37;;
70838;SDS011;58464;52.298;4.852;2023-08-30T14:29:15;11.07;;;1.42;;
70838;SDS011;58464;52.298;4.852;2023-08-30T14:31:40;11.23;;;1.53;;
70838;SDS011;58464;52.298;4.852;2023-08-30T14:34:05;8.97;;;1.87;;
70838;SDS011;58464;52.298;4.852;2023-08-30T14:36:31;9.02;;;1.38;;